KTTN Airport Information

Runway Information
Runway 06 Length 6006 ft width 150 ft
Elevation 160 ft Threshold 0 ft Heading 47
Runway 24 Length 6006 ft Width 150 ft
Elevation 192 ft Threshold 0 ft Heading 227
Runway 16 Length 4800 ft width 150 ft
Elevation 212 ft Threshold 0 ft Heading 146
Runway 34 Length 4800 ft Width 150 ft
Elevation 174 ft Threshold 0 ft Heading 326
Airport Frequencies
Type A/D Name PHILADELPH Frequency 123.8 MHZ
Type ASOS Name ASOS Frequency 133.7 MHZ
Type ATIS Name ATIS Frequency 133.7 MHZ
Type CTAF Name CTAF Frequency 120.7 MHZ
Type GND Name GND/CLNC D Frequency 121.9 MHZ
Type OPS Name ARNG OPS Frequency 40.1 MHZ
Type TWR Name TWR Frequency 120.7 MHZ
Type UNIC Name UNICOM Frequency 122.95 MHZ
Airport Navaids
Type VOR-DME Name Yardley Frequency 108200 KHZ
Type NDB Name Trenn Frequency 369 KHZ
Airport Weather Information & NOTAM
ADDS - METARS form results

(1725 UTC 20 January 2022)
Data provider http://aviationweather.gov/metar/data/
 
METAR text: KTTN 201719Z 34011KT 10SM SCT012 BKN017 OVC060 00/M02 A3015 RMK AO2 T00001017
Conditions at: KTTN (TRENTON , NJ, US) observed 1719 UTC 20 January 2022
Temperature: 0.0°C (32°F)
Dewpoint: -1.7°C (29°F) [RH = 88%]
Pressure (altimeter): 30.15 inches Hg (1021.1 mb)
Winds: from the NNW (340 degrees) at 13 MPH (11 knots; 5.7 m/s)
Visibility: 10 or more miles (16+ km)
Ceiling: 1700 feet AGL
Clouds: scattered clouds at 1200 feet AGL
broken clouds at 1700 feet AGL
overcast cloud deck at 6000 feet AGL
Weather: no significant weather observed at this time

METAR text: KTTN 201653Z 35008KT 10SM BKN013 OVC070 00/M01 A3015 RMK AO2 SNB25E36 SLP206 P0000 T00001011
Conditions at: KTTN (TRENTON , NJ, US) observed 1653 UTC 20 January 2022
Temperature: 0.0°C (32°F)
Dewpoint: -1.1°C (30°F) [RH = 92%]
Pressure (altimeter): 30.15 inches Hg (1021.1 mb)
[Sea-level pressure: 1020.6 mb]
Winds: from the N (350 degrees) at 9 MPH (8 knots; 4.1 m/s)
Visibility: 10 or more miles (16+ km)
Ceiling: 1300 feet AGL
Clouds: broken clouds at 1300 feet AGL
overcast cloud deck at 7000 feet AGL
Weather: no significant weather observed at this time

METAR text: KTTN 201649Z 34010KT 10SM BKN013 BKN045 OVC070 00/M01 A3015 RMK AO2 SNB25E36 P0000
Conditions at: KTTN (TRENTON , NJ, US) observed 1649 UTC 20 January 2022
Temperature: 0.0°C (32°F)
Dewpoint: -1.0°C (30°F) [RH = 93%]
Pressure (altimeter): 30.15 inches Hg (1021.1 mb)
Winds: from the NNW (340 degrees) at 12 MPH (10 knots; 5.1 m/s)
Visibility: 10 or more miles (16+ km)
Ceiling: 1300 feet AGL
Clouds: broken clouds at 1300 feet AGL
broken clouds at 4500 feet AGL
overcast cloud deck at 7000 feet AGL
Weather: no significant weather observed at this time

Forecast for: KTTN (TRENTON , NJ, US)
Text: KTTN 201722Z 2018/2118 35010G18KT P6SM SCT020 OVC050
Forecast period: 1800 to 2000 UTC 20 January 2022
Forecast type: FROM: standard forecast or significant change
Winds: from the N (350 degrees) at 12 MPH (10 knots; 5.1 m/s)
gusting to 21 MPH (18 knots; 9.3 m/s)
Visibility: 6 or more miles (10+ km)
Ceiling: 5000 feet AGL
Clouds: scattered clouds at 2000 feet AGL
overcast cloud deck at 5000 feet AGL
Weather: no significant weather forecast for this period
Text: TEMPO 2018/2020 BKN020 BKN050
Forecast period: 1800 to 2000 UTC 20 January 2022
Forecast type: TEMPORARY: The following changes expected for less than half the time period
Visibility: missing
Ceiling: 2000 feet AGL
Clouds: broken clouds at 2000 feet AGL
broken clouds at 5000 feet AGL
Weather: no significant weather forecast for this period
Text: FM202000 36010G18KT P6SM SCT050
Forecast period: 2000 UTC 20 January 2022 to 0300 UTC 21 January 2022
Forecast type: FROM: standard forecast or significant change
Winds: from the N (360 degrees) at 12 MPH (10 knots; 5.1 m/s)
gusting to 21 MPH (18 knots; 9.3 m/s)
Visibility: 6 or more miles (10+ km)
Ceiling: at least 12,000 feet AGL
Clouds: scattered clouds at 5000 feet AGL
Weather: no significant weather forecast for this period
Text: FM210300 01008KT P6SM SCT050
Forecast period: 0300 to 1800 UTC 21 January 2022
Forecast type: FROM: standard forecast or significant change
Winds: from the N (10 degrees) at 9 MPH (8 knots; 4.1 m/s)
Visibility: 6 or more miles (10+ km)
Ceiling: at least 12,000 feet AGL
Clouds: scattered clouds at 5000 feet AGL
Weather: no significant weather forecast for this period